Time;durP1;ratioP1;P1;durP2;ratioP2;P2;SDS_P1;SDS_P2;PMS_P1;PMS_P2;Temp;Humidity;BMP_temperature;BMP_pressure;BME280_temperature;BME280_humidity;BME280_pressure;Samples;Min_cycle;Max_cycle;Signal;HPM_P1;HPM_P2
2024/01/24 00:00:50;;;;;;;2.37;0.50;;;;;;;7.97;100.00;97188.28;4975175;28;20208;-67
2024/01/24 00:03:17;;;;;;;0.67;0.60;;;;;;;7.89;100.00;97193.34;4974441;28;20599;-68
2024/01/24 00:05:44;;;;;;;9.93;1.03;;;;;;;7.92;100.00;97190.47;4974357;28;20963;-67
2024/01/24 00:08:11;;;;;;;0.97;0.60;;;;;;;7.99;100.00;97212.56;4974210;28;20310;-67
2024/01/24 00:10:39;;;;;;;1.27;0.67;;;;;;;8.08;100.00;97201.25;4974808;28;20214;-68
2024/01/24 00:13:05;;;;;;;2.87;0.87;;;;;;;7.99;100.00;97191.56;4974815;28;20210;-68
2024/01/24 00:15:31;;;;;;;0.80;0.67;;;;;;;7.95;100.00;97174.44;4974987;28;20207;-68
2024/01/24 00:17:58;;;;;;;0.70;0.60;;;;;;;7.86;100.00;97185.78;4973165;28;20482;-67
2024/01/24 00:20:25;;;;;;;1.00;0.70;;;;;;;8.04;100.00;97179.72;4974433;28;20211;-67
2024/01/24 00:22:52;;;;;;;0.70;0.70;;;;;;;7.89;100.00;97167.97;4974377;28;20230;-67
2024/01/24 00:25:18;;;;;;;0.40;0.40;;;;;;;8.08;100.00;97154.84;4973954;28;20218;-68
2024/01/24 00:27:47;;;;;;;0.63;0.50;;;;;;;8.18;100.00;97171.41;4973955;28;20598;-67
2024/01/24 00:30:13;;;;;;;1.37;0.80;;;;;;;8.18;100.00;97165.34;4973966;28;20764;-68
2024/01/24 00:32:40;;;;;;;0.50;0.50;;;;;;;8.12;100.00;97161.47;4974549;28;20269;-67
2024/01/24 00:35:07;;;;;;;5.37;0.70;;;;;;;8.27;100.00;97161.88;4974591;28;20204;-68
2024/01/24 00:37:33;;;;;;;1.27;0.63;;;;;;;8.12;100.00;97166.72;4973840;28;20665;-68
2024/01/24 00:39:59;;;;;;;2.37;0.90;;;;;;;8.15;100.00;97158.59;4974320;28;21527;-67
2024/01/24 00:42:26;;;;;;;0.50;0.47;;;;;;;8.13;100.00;97151.78;4978230;28;20595;-68
2024/01/24 00:44:54;;;;;;;0.40;0.40;;;;;;;8.15;100.00;97157.75;4977730;28;20835;-67
2024/01/24 00:47:20;;;;;;;3.03;0.70;;;;;;;8.07;100.00;97168.06;4976992;28;20229;-68
2024/01/24 00:49:47;;;;;;;1.13;0.50;;;;;;;8.00;100.00;97152.06;4977465;28;20230;-67
2024/01/24 00:52:13;;;;;;;0.47;0.40;;;;;;;8.01;100.00;97137.16;4977722;28;20367;-68
2024/01/24 00:54:40;;;;;;;1.80;0.60;;;;;;;8.11;100.00;97128.31;4977517;28;20215;-68
2024/01/24 00:57:06;;;;;;;0.60;0.60;;;;;;;8.01;100.00;97131.91;4977384;28;20203;-67
2024/01/24 00:59:33;;;;;;;0.50;0.50;;;;;;;8.06;100.00;97121.81;4977370;28;20784;-67
2024/01/24 01:02:02;;;;;;;1.87;0.53;;;;;;;8.19;100.00;97110.06;4977626;28;20207;-67
2024/01/24 01:04:29;;;;;;;0.50;0.50;;;;;;;8.17;100.00;97122.53;4976837;28;20223;-67
2024/01/24 01:06:55;;;;;;;2.13;0.63;;;;;;;8.17;100.00;97113.81;4977448;28;20214;-66
2024/01/24 01:09:21;;;;;;;0.70;0.63;;;;;;;8.12;100.00;97114.22;4976843;28;20235;-67
2024/01/24 01:11:48;;;;;;;1.47;0.60;;;;;;;8.31;100.00;97103.72;4977314;28;20212;-67
2024/01/24 01:14:14;;;;;;;1.13;0.67;;;;;;;8.13;100.00;97104.53;4977339;28;20199;-67
2024/01/24 01:16:41;;;;;;;5.73;0.67;;;;;;;8.23;100.00;97121.13;4976224;28;20212;-67
2024/01/24 01:19:08;;;;;;;0.70;0.70;;;;;;;8.41;100.00;97115.00;4976152;28;20367;-67
2024/01/24 01:21:35;;;;;;;0.80;0.60;;;;;;;8.35;100.00;97106.84;4977209;28;20211;-67
2024/01/24 01:24:02;;;;;;;0.77;0.60;;;;;;;8.39;100.00;97102.97;4976988;28;20236;-66
2024/01/24 01:26:28;;;;;;;0.93;0.73;;;;;;;8.46;100.00;97107.50;4976330;28;20207;-66
2024/01/24 01:28:55;;;;;;;1.17;0.50;;;;;;;8.47;100.00;97105.72;4977490;28;20230;-67
2024/01/24 01:31:21;;;;;;;0.60;0.60;;;;;;;8.43;100.00;97114.88;4977134;28;20210;-67
2024/01/24 01:33:48;;;;;;;3.37;0.70;;;;;;;8.55;100.00;97112.75;4976830;28;20224;-67
2024/01/24 01:36:16;;;;;;;0.33;0.27;;;;;;;8.65;100.00;97108.25;4977102;28;20210;-67
2024/01/24 01:38:42;;;;;;;1.30;0.70;;;;;;;8.54;100.00;97105.84;4976836;28;20239;-66
2024/01/24 01:41:09;;;;;;;1.80;0.57;;;;;;;8.39;100.00;97101.19;4976559;28;20424;-67
2024/01/24 01:43:35;;;;;;;0.50;0.50;;;;;;;8.55;100.00;97085.63;4976886;28;20606;-66
2024/01/24 01:46:06;;;;;;;0.40;0.40;;;;;;;8.66;100.00;97070.50;4977473;28;20214;-67
2024/01/24 01:48:34;;;;;;;1.10;0.70;;;;;;;8.72;100.00;97061.25;4975983;28;20225;-67
2024/01/24 01:51:02;;;;;;;0.50;0.40;;;;;;;8.57;100.00;97060.88;4976551;28;20385;-67
2024/01/24 01:53:30;;;;;;;5.40;0.83;;;;;;;8.78;100.00;97052.75;4976566;28;20378;-67
2024/01/24 01:55:58;;;;;;;0.50;0.50;;;;;;;8.80;100.00;97046.38;4976761;28;20214;-67
2024/01/24 01:58:25;;;;;;;2.30;0.50;;;;;;;8.80;100.00;97043.75;4975832;28;20362;-66
2024/01/24 02:00:50;;;;;;;0.80;0.70;;;;;;;8.93;100.00;97049.50;4976508;28;20222;-66
2024/01/24 02:03:17;;;;;;;0.97;0.50;;;;;;;8.96;100.00;97051.84;4976341;28;20231;-67
2024/01/24 02:05:45;;;;;;;4.23;1.10;;;;;;;9.18;100.00;97033.00;4975968;28;20677;-66
2024/01/24 02:08:12;;;;;;;10.90;0.70;;;;;;;8.90;100.00;97033.22;4975320;28;20234;-67
2024/01/24 02:10:40;;;;;;;0.40;0.40;;;;;;;8.95;100.00;97029.16;4976634;28;20211;-67
2024/01/24 02:13:07;;;;;;;2.83;0.77;;;;;;;8.96;100.00;97030.81;4976804;28;20207;-67
2024/01/24 02:15:33;;;;;;;0.57;0.57;;;;;;;8.84;100.00;97025.91;4976126;28;20203;-67
2024/01/24 02:18:00;;;;;;;2.10;0.60;;;;;;;8.86;100.00;97030.03;4975207;28;20230;-66
2024/01/24 02:20:30;;;;;;;5.17;0.50;;;;;;;9.01;100.00;97023.28;4976344;28;20211;-67
2024/01/24 02:22:56;;;;;;;1.57;0.87;;;;;;;8.97;100.00;97013.22;4976272;28;20551;-66
2024/01/24 02:25:24;;;;;;;0.67;0.57;;;;;;;9.13;100.00;97014.22;4976045;28;20213;-67
2024/01/24 02:27:50;;;;;;;0.40;0.40;;;;;;;8.96;100.00;97022.94;4975725;28;20246;-67
2024/01/24 02:30:17;;;;;;;0.40;0.40;;;;;;;9.10;100.00;97014.53;4976413;28;20203;-67
2024/01/24 02:32:43;;;;;;;0.53;0.50;;;;;;;9.18;100.00;96994.38;4975945;28;20680;-67
2024/01/24 02:35:10;;;;;;;1.67;0.67;;;;;;;9.13;100.00;96998.44;4976197;28;20202;-66
2024/01/24 02:37:38;;;;;;;1.00;0.50;;;;;;;9.35;100.00;97006.69;4975798;28;20594;-66
2024/01/24 02:40:06;;;;;;;0.40;0.40;;;;;;;9.25;100.00;96997.25;4975804;28;20564;-67
2024/01/24 02:42:34;;;;;;;0.33;0.33;;;;;;;9.37;100.00;96998.69;4976380;28;20310;-66
2024/01/24 02:45:00;;;;;;;0.80;0.40;;;;;;;9.09;100.00;96999.72;4975729;28;20227;-67
2024/01/24 02:47:27;;;;;;;0.77;0.40;;;;;;;9.22;100.00;96989.66;4974484;28;20594;-66
2024/01/24 02:49:53;;;;;;;1.40;1.30;;;;;;;9.32;100.00;96972.00;4975574;28;20207;-67
2024/01/24 02:52:20;;;;;;;0.53;0.50;;;;;;;9.28;100.00;96986.44;4975671;28;20211;-67
2024/01/24 02:54:46;;;;;;;0.47;0.40;;;;;;;9.43;100.00;96971.75;4975694;28;20207;-66
2024/01/24 02:59:42;;;;;;;0.30;0.30;;;;;;;9.74;100.00;96955.38;4992757;28;20637;-67
2024/01/24 03:02:09;;;;;;;0.30;0.30;;;;;;;9.54;100.00;96942.59;4992177;28;20226;-67
2024/01/24 03:04:36;;;;;;;3.27;0.90;;;;;;;9.71;100.00;96953.88;4992888;28;20202;-67
2024/01/24 03:07:03;;;;;;;0.40;0.40;;;;;;;9.71;100.00;96953.03;4992408;28;20589;-67
2024/01/24 03:09:30;;;;;;;1.80;0.40;;;;;;;9.79;100.00;96961.84;4992900;28;20231;-67
2024/01/24 03:11:56;;;;;;;3.17;0.67;;;;;;;9.89;100.00;96959.94;4993676;28;20206;-67
2024/01/24 03:14:24;;;;;;;0.40;0.37;;;;;;;9.96;100.00;96952.25;4991590;28;20202;-67
2024/01/24 03:16:52;;;;;;;2.70;0.70;;;;;;;10.11;100.00;96946.25;4993046;28;20215;-68
2024/01/24 03:19:18;;;;;;;0.53;0.50;;;;;;;10.03;100.00;96966.44;4990544;28;20218;-67
2024/01/24 03:21:45;;;;;;;0.87;0.50;;;;;;;10.07;100.00;96959.88;4991400;28;20350;-67
2024/01/24 03:24:11;;;;;;;0.43;0.43;;;;;;;10.02;100.00;96947.19;4993950;28;20214;-67
2024/01/24 03:26:38;;;;;;;0.27;0.27;;;;;;;9.88;100.00;96950.38;4992222;28;20535;-67
2024/01/24 03:29:04;;;;;;;0.50;0.50;;;;;;;9.97;100.00;96951.28;4992444;28;20500;-67
2024/01/24 03:31:31;;;;;;;0.97;0.60;;;;;;;10.03;100.00;96955.91;4991527;28;20234;-67
2024/01/24 03:33:59;;;;;;;0.60;0.40;;;;;;;10.11;100.00;96951.53;4994209;28;20218;-67
2024/01/24 03:36:25;;;;;;;3.03;0.47;;;;;;;9.94;100.00;96970.81;4992731;28;20608;-67
2024/01/24 03:38:52;;;;;;;1.80;0.47;;;;;;;9.89;100.00;96982.78;4991296;28;20226;-67
2024/01/24 03:41:19;;;;;;;2.30;0.60;;;;;;;9.96;100.00;96979.41;4992912;28;20199;-67
2024/01/24 03:43:45;;;;;;;0.40;0.40;;;;;;;9.94;100.00;96972.59;4991469;28;20202;-68
2024/01/24 03:46:12;;;;;;;0.20;0.20;;;;;;;10.03;100.00;96974.34;4990175;28;20202;-67
2024/01/24 03:48:39;;;;;;;0.50;0.50;;;;;;;9.97;100.00;96970.53;4990368;28;20237;-67
2024/01/24 03:51:09;;;;;;;4.40;0.47;;;;;;;10.27;100.00;96967.38;4992478;28;20207;-67
2024/01/24 03:53:35;;;;;;;1.53;0.80;;;;;;;10.08;100.00;96972.91;4991139;28;20263;-68
2024/01/24 03:56:02;;;;;;;0.40;0.40;;;;;;;10.18;100.00;96967.53;4992715;28;20211;-67
2024/01/24 03:58:29;;;;;;;0.33;0.33;;;;;;;10.05;100.00;96959.22;4991879;28;20227;-67
2024/01/24 04:00:55;;;;;;;0.23;0.23;;;;;;;10.21;100.00;96956.66;4991796;28;20210;-68
2024/01/24 04:03:22;;;;;;;0.50;0.50;;;;;;;10.23;100.00;96971.31;4992014;28;20210;-68
2024/01/24 04:05:48;;;;;;;0.37;0.37;;;;;;;10.36;100.00;96971.72;4992287;28;20207;-67
2024/01/24 04:08:16;;;;;;;0.50;0.50;;;;;;;10.49;100.00;96965.03;4990269;28;20234;-67
2024/01/24 04:10:43;;;;;;;0.43;0.40;;;;;;;10.44;100.00;96961.22;4980122;28;20740;-67
2024/01/24 04:13:09;;;;;;;1.57;1.00;;;;;;;10.44;100.00;96955.97;4979772;28;20217;-67
2024/01/24 04:15:36;;;;;;;0.37;0.37;;;;;;;10.45;100.00;96970.75;4977751;28;20207;-67
2024/01/24 04:18:03;;;;;;;0.60;0.50;;;;;;;10.43;100.00;96965.66;4977804;28;20519;-67
2024/01/24 04:20:29;;;;;;;0.40;0.40;;;;;;;10.40;100.00;96967.81;4977178;28;20208;-67
2024/01/24 04:22:56;;;;;;;0.50;0.47;;;;;;;10.46;100.00;96951.34;4978783;28;20207;-67
2024/01/24 04:25:24;;;;;;;3.20;0.60;;;;;;;10.73;100.00;96945.84;4978672;28;20210;-68
2024/01/24 04:27:50;;;;;;;0.23;0.23;;;;;;;10.60;100.00;96954.22;4976729;28;20263;-66
2024/01/24 04:30:17;;;;;;;0.50;0.50;;;;;;;10.59;100.00;96955.19;4978117;28;20689;-67
2024/01/24 04:32:43;;;;;;;0.70;0.30;;;;;;;10.65;100.00;96943.19;4977873;28;20215;-67
2024/01/24 04:35:10;;;;;;;0.60;0.40;;;;;;;10.74;100.00;96952.75;4979364;28;20381;-67
2024/01/24 04:37:36;;;;;;;0.30;0.30;;;;;;;10.64;100.00;96959.97;4977504;28;20246;-67
2024/01/24 04:40:04;;;;;;;7.10;0.97;;;;;;;10.59;100.00;96971.00;4977672;28;20207;-66
2024/01/24 04:42:32;;;;;;;0.40;0.40;;;;;;;10.88;100.00;96965.31;4979107;28;20215;-66
2024/01/24 04:44:59;;;;;;;0.37;0.33;;;;;;;10.71;100.00;96966.28;4978293;28;20214;-67
2024/01/24 04:47:25;;;;;;;0.30;0.30;;;;;;;10.79;100.00;96990.81;4977133;28;20230;-67
2024/01/24 04:49:52;;;;;;;0.33;0.33;;;;;;;10.95;100.00;96970.59;4976101;28;20234;-67
2024/01/24 04:52:19;;;;;;;0.30;0.30;;;;;;;10.93;100.00;96982.31;4977775;28;20207;-67
2024/01/24 04:54:45;;;;;;;0.40;0.30;;;;;;;11.03;100.00;96973.25;4979692;28;20215;-67
2024/01/24 04:57:12;;;;;;;0.30;0.30;;;;;;;11.08;100.00;96983.34;4977885;28;21083;-67
2024/01/24 04:59:41;;;;;;;0.57;0.57;;;;;;;11.50;100.00;96982.25;4978257;28;20768;-66
2024/01/24 05:02:08;;;;;;;0.37;0.33;;;;;;;11.28;100.00;96980.25;4978299;28;20304;-66
2024/01/24 05:04:35;;;;;;;4.20;1.00;;;;;;;11.45;100.00;96989.00;4979105;28;20222;-67
2024/01/24 05:07:01;;;;;;;0.63;0.50;;;;;;;11.44;100.00;96972.31;4978345;28;20211;-67
2024/01/24 05:09:28;;;;;;;0.40;0.40;;;;;;;11.38;100.00;96970.34;4977747;28;20246;-68
2024/01/24 05:11:54;;;;;;;0.50;0.50;;;;;;;11.50;100.00;96992.81;4978620;28;20292;-67
2024/01/24 05:14:21;;;;;;;0.40;0.40;;;;;;;11.60;100.00;96983.75;4977698;28;20203;-67
2024/01/24 05:16:49;;;;;;;0.40;0.40;;;;;;;11.73;100.00;96976.13;4977338;28;20203;-67
2024/01/24 05:19:15;;;;;;;0.30;0.30;;;;;;;11.55;100.00;96982.59;4975560;28;20219;-66
2024/01/24 05:21:42;;;;;;;0.30;0.30;;;;;;;11.52;100.00;96996.13;4976469;28;20211;-67
2024/01/24 05:24:10;;;;;;;1.40;0.57;;;;;;;11.77;100.00;96976.63;4979817;28;20681;-68
2024/01/24 05:26:37;;;;;;;2.30;0.60;;;;;;;11.55;100.00;96979.94;4976731;28;20952;-67
2024/01/24 05:29:05;;;;;;;0.40;0.40;;;;;;;11.68;100.00;96975.00;4977293;28;20720;-67
2024/01/24 05:31:33;;;;;;;0.50;0.50;;;;;;;11.54;100.00;96967.75;4978037;28;20315;-66
2024/01/24 05:34:01;;;;;;;0.53;0.53;;;;;;;11.75;100.00;96990.00;4977537;28;20203;-66
2024/01/24 05:36:28;;;;;;;0.30;0.30;;;;;;;11.70;100.00;96979.13;4977608;28;20290;-67
2024/01/24 05:38:54;;;;;;;3.57;0.93;;;;;;;11.79;100.00;96987.88;4977543;28;20473;-67
2024/01/24 05:41:21;;;;;;;0.30;0.30;;;;;;;11.79;100.00;96977.31;4977557;28;20338;-67
2024/01/24 05:43:48;;;;;;;0.40;0.40;;;;;;;11.84;100.00;96970.53;4977893;28;20243;-67
2024/01/24 05:46:15;;;;;;;3.00;0.40;;;;;;;11.88;100.00;96969.19;4977247;28;20203;-67
2024/01/24 05:48:41;;;;;;;0.40;0.40;;;;;;;11.86;100.00;96970.34;4975487;28;20295;-67
2024/01/24 05:51:09;;;;;;;0.73;0.40;;;;;;;11.99;100.00;96976.78;4977502;28;20211;-67
2024/01/24 05:53:36;;;;;;;0.30;0.30;;;;;;;11.83;100.00;96970.69;4977496;28;20215;-67
2024/01/24 05:56:02;;;;;;;1.33;0.80;;;;;;;11.93;100.00;96979.28;4976580;28;20207;-66
2024/01/24 05:58:29;;;;;;;0.90;0.60;;;;;;;11.77;100.00;96976.63;4976120;28;20237;-67
2024/01/24 06:00:56;;;;;;;0.63;0.53;;;;;;;11.90;100.00;96958.47;4977138;28;20211;-67
2024/01/24 06:03:22;;;;;;;2.77;0.67;;;;;;;11.80;100.00;96955.16;4977460;28;20214;-67
2024/01/24 06:05:49;;;;;;;0.50;0.50;;;;;;;11.77;100.00;96958.16;4977095;28;20218;-66
2024/01/24 06:08:17;;;;;;;0.87;0.50;;;;;;;11.85;100.00;96955.50;4976818;28;20264;-67
2024/01/24 06:10:44;;;;;;;0.87;0.60;;;;;;;11.83;100.00;96978.63;4978314;28;20237;-67
2024/01/24 06:13:10;;;;;;;0.50;0.50;;;;;;;11.72;100.00;96974.50;4978021;28;20673;-67
2024/01/24 06:15:37;;;;;;;2.63;0.40;;;;;;;11.89;100.00;96976.13;4975875;28;20213;-67
2024/01/24 06:18:04;;;;;;;0.33;0.33;;;;;;;11.68;100.00;96973.19;4977381;28;20227;-67
2024/01/24 06:20:31;;;;;;;0.70;0.70;;;;;;;11.86;100.00;96994.13;4976699;28;21315;-68
2024/01/24 06:22:57;;;;;;;0.43;0.40;;;;;;;11.69;100.00;97003.06;4976442;28;20235;-68
2024/01/24 06:25:25;;;;;;;0.47;0.30;;;;;;;11.81;100.00;96981.44;4977054;28;20207;-66
2024/01/24 06:27:52;;;;;;;0.40;0.40;;;;;;;11.64;100.00;96989.53;4976919;28;20231;-67
2024/01/24 06:30:18;;;;;;;2.77;0.80;;;;;;;11.78;100.00;96996.78;4976616;28;20234;-66
2024/01/24 06:32:45;;;;;;;0.50;0.50;;;;;;;11.65;100.00;96984.06;4977452;28;20207;-67
2024/01/24 06:35:11;;;;;;;0.47;0.40;;;;;;;11.73;100.00;96976.13;4978010;28;20211;-66
2024/01/24 06:37:38;;;;;;;0.47;0.30;;;;;;;11.71;100.00;96985.22;4975245;28;20231;-67
2024/01/24 06:40:06;;;;;;;1.03;0.50;;;;;;;11.95;100.00;96993.13;4977984;28;20203;-67
2024/01/24 06:42:34;;;;;;;0.60;0.47;;;;;;;11.93;100.00;97003.88;4977343;28;20211;-67
2024/01/24 06:45:00;;;;;;;0.40;0.40;;;;;;;11.89;100.00;97002.56;4976553;28;20214;-67
2024/01/24 06:47:27;;;;;;;0.47;0.47;;;;;;;11.89;100.00;97004.34;4975884;28;20227;-69
2024/01/24 06:49:53;;;;;;;0.67;0.67;;;;;;;11.85;100.00;96992.47;4975425;28;20258;-69
2024/01/24 06:52:20;;;;;;;0.30;0.30;;;;;;;11.91;100.00;96999.75;4976335;28;20214;-69
2024/01/24 06:54:46;;;;;;;0.40;0.40;;;;;;;11.97;100.00;97007.00;4976750;28;20211;-69
2024/01/24 06:57:13;;;;;;;0.30;0.30;;;;;;;11.91;100.00;96997.09;4976927;28;20565;-68
2024/01/24 06:59:41;;;;;;;1.67;0.70;;;;;;;12.10;100.00;96996.75;4975448;28;20217;-69
2024/01/24 07:02:07;;;;;;;1.03;0.87;;;;;;;12.00;100.00;96980.25;4977795;28;20207;-67
2024/01/24 07:04:34;;;;;;;0.50;0.50;;;;;;;11.94;100.00;96996.75;4975549;28;20221;-68
2024/01/24 07:07:01;;;;;;;1.03;0.73;;;;;;;11.91;100.00;96997.09;4974892;28;20211;-67
2024/01/24 07:09:27;;;;;;;0.60;0.50;;;;;;;12.10;100.00;96988.81;4976345;28;20223;-68
2024/01/24 07:11:54;;;;;;;2.63;0.53;;;;;;;12.16;100.00;96981.03;4975852;28;20218;-69
2024/01/24 07:14:20;;;;;;;0.30;0.30;;;;;;;12.17;100.00;96983.50;4979124;28;21092;-69
2024/01/24 07:16:48;;;;;;;0.77;0.43;;;;;;;12.20;100.00;96982.34;4975380;28;20679;-69
2024/01/24 07:19:15;;;;;;;1.07;0.63;;;;;;;12.19;100.00;96997.41;4974508;28;20223;-69
2024/01/24 07:21:41;;;;;;;0.57;0.57;;;;;;;12.17;100.00;96974.78;4976291;28;20739;-70
2024/01/24 07:24:08;;;;;;;0.40;0.40;;;;;;;12.22;100.00;96975.91;4975810;28;20214;-67
2024/01/24 07:26:35;;;;;;;0.67;0.50;;;;;;;12.26;100.00;96964.00;4976669;28;20230;-67
2024/01/24 07:29:01;;;;;;;0.40;0.40;;;;;;;12.36;100.00;96972.56;4975979;28;20227;-67
2024/01/24 07:31:28;;;;;;;0.40;0.40;;;;;;;12.36;100.00;96963.81;4978002;28;20207;-67
2024/01/24 07:33:56;;;;;;;0.50;0.37;;;;;;;12.66;100.00;96987.66;4976805;28;20211;-67
2024/01/24 07:36:23;;;;;;;1.60;0.47;;;;;;;12.54;100.00;96981.09;4975481;28;20247;-67
2024/01/24 07:38:49;;;;;;;0.57;0.57;;;;;;;12.62;100.00;97001.41;4977069;28;20231;-67
2024/01/24 07:41:16;;;;;;;0.33;0.33;;;;;;;12.67;100.00;96994.59;4977052;28;20211;-68
2024/01/24 07:43:42;;;;;;;0.33;0.33;;;;;;;12.70;100.00;97007.47;4975828;28;20214;-67
2024/01/24 07:46:09;;;;;;;0.47;0.47;;;;;;;12.78;100.00;96988.94;4979792;28;20672;-67
2024/01/24 07:48:36;;;;;;;0.40;0.40;;;;;;;12.86;100.00;96996.84;4978057;28;20321;-68
2024/01/24 07:51:05;;;;;;;0.53;0.53;;;;;;;12.96;100.00;96993.00;4978721;28;20227;-67
2024/01/24 07:53:31;;;;;;;1.63;0.70;;;;;;;12.81;100.00;96991.22;4979612;28;21037;-67
2024/01/24 07:55:59;;;;;;;3.90;0.40;;;;;;;12.72;100.00;96973.75;4979856;28;20669;-67
2024/01/24 07:58:27;;;;;;;0.60;0.50;;;;;;;12.71;100.00;96981.84;4979483;28;20238;-68
2024/01/24 08:00:54;;;;;;;0.33;0.33;;;;;;;12.81;100.00;96988.56;4977324;28;20199;-67
2024/01/24 08:03:21;;;;;;;0.47;0.47;;;;;;;12.72;100.00;96980.88;4980223;28;20342;-66
2024/01/24 08:05:47;;;;;;;1.20;0.50;;;;;;;12.65;100.00;96982.53;4979380;28;20214;-67
2024/01/24 08:08:15;;;;;;;2.73;0.57;;;;;;;12.78;100.00;96965.13;4981196;28;21185;-67
2024/01/24 08:10:42;;;;;;;0.50;0.43;;;;;;;12.80;100.00;96966.59;4978724;28;20227;-68
2024/01/24 08:13:08;;;;;;;0.50;0.30;;;;;;;12.82;100.00;96963.78;4979825;28;20673;-67
2024/01/24 08:15:34;;;;;;;0.60;0.40;;;;;;;12.77;100.00;96961.66;4979757;28;20226;-68
2024/01/24 08:18:01;;;;;;;0.57;0.57;;;;;;;12.88;100.00;96973.69;4977313;28;20227;-67
2024/01/24 08:20:27;;;;;;;0.23;0.23;;;;;;;12.86;100.00;96996.84;4977664;28;20195;-67
2024/01/24 08:22:54;;;;;;;6.30;0.77;;;;;;;12.85;100.00;96952.84;4979680;28;20211;-67
2024/01/24 08:25:22;;;;;;;0.30;0.30;;;;;;;13.12;100.00;96942.66;4978811;28;20681;-67
2024/01/24 08:27:48;;;;;;;0.50;0.50;;;;;;;12.98;100.00;96958.44;4979707;28;21080;-67
2024/01/24 08:30:15;;;;;;;0.70;0.50;;;;;;;12.92;100.00;96948.56;4978926;28;20231;-67
2024/01/24 08:32:42;;;;;;;1.63;0.70;;;;;;;12.99;100.00;96966.19;4977920;28;20706;-67
2024/01/24 08:35:09;;;;;;;2.83;0.70;;;;;;;13.05;100.00;96959.41;4980016;28;20218;-66
2024/01/24 08:37:35;;;;;;;0.30;0.30;;;;;;;13.01;100.00;96974.78;4978689;28;20219;-66
2024/01/24 08:40:02;;;;;;;0.50;0.50;;;;;;;13.00;100.00;96985.53;4977915;28;20669;-67
2024/01/24 08:42:30;;;;;;;0.60;0.40;;;;;;;13.06;100.00;96977.72;4979740;28;20203;-67
2024/01/24 08:44:57;;;;;;;0.40;0.40;;;;;;;13.04;100.00;96995.59;4978525;28;20585;-67
2024/01/24 08:47:23;;;;;;;0.40;0.40;;;;;;;12.98;100.00;96967.22;4977536;28;20234;-67
2024/01/24 08:49:52;;;;;;;0.30;0.30;;;;;;;13.00;100.00;96993.47;4976468;28;20664;-67
2024/01/24 08:52:19;;;;;;;0.70;0.50;;;;;;;13.20;100.00;96984.94;4979567;28;20215;-66
2024/01/24 08:54:45;;;;;;;2.20;0.50;;;;;;;13.05;100.00;96977.91;4978145;28;20226;-66
2024/01/24 08:57:12;;;;;;;0.40;0.40;;;;;;;13.06;100.00;96995.41;4980706;28;20214;-67
2024/01/24 08:59:40;;;;;;;0.30;0.30;;;;;;;13.15;100.00;96999.66;4977963;28;20203;-68
2024/01/24 09:02:07;;;;;;;0.80;0.80;;;;;;;13.13;100.00;96993.75;4977634;28;20199;-66
2024/01/24 09:04:36;;;;;;;2.33;0.40;;;;;;;13.12;100.00;96973.56;4979581;28;20210;-67
2024/01/24 09:07:02;;;;;;;2.37;0.83;;;;;;;13.06;100.00;96995.41;4977277;28;20207;-67
2024/01/24 09:09:32;;;;;;;0.67;0.50;;;;;;;13.17;100.00;97014.38;4979387;28;20203;-67
2024/01/24 09:11:59;;;;;;;0.30;0.30;;;;;;;13.17;100.00;97008.25;4978992;28;20230;-67
2024/01/24 09:14:26;;;;;;;0.30;0.30;;;;;;;13.21;100.00;96988.38;4978192;28;20211;-67
2024/01/24 09:16:53;;;;;;;0.40;0.40;;;;;;;13.22;100.00;96977.63;4978225;28;20326;-67
2024/01/24 09:19:20;;;;;;;0.77;0.60;;;;;;;13.17;100.00;96979.16;4977415;28;20729;-68
2024/01/24 09:21:47;;;;;;;0.23;0.23;;;;;;;13.21;100.00;96961.91;4977207;28;20247;-68
2024/01/24 09:24:14;;;;;;;0.50;0.40;;;;;;;13.29;100.00;96956.56;4975926;28;20203;-68
2024/01/24 09:26:40;;;;;;;0.30;0.30;;;;;;;13.22;100.00;96968.88;4977716;28;20208;-68
2024/01/24 09:29:11;;;;;;;0.30;0.30;;;;;;;13.28;100.00;96961.03;4976463;28;21228;-68
2024/01/24 09:31:38;;;;;;;0.30;0.30;;;;;;;13.24;100.00;96958.91;4978039;28;20234;-68
2024/01/24 09:34:06;;;;;;;0.50;0.50;;;;;;;13.43;100.00;96957.47;4978039;28;20203;-68
2024/01/24 09:36:32;;;;;;;0.47;0.40;;;;;;;13.45;100.00;96968.72;4976881;28;20207;-68
2024/01/24 09:38:59;;;;;;;2.00;0.77;;;;;;;13.20;100.00;96994.66;4977749;28;20227;-68
2024/01/24 09:41:26;;;;;;;0.87;0.40;;;;;;;13.36;100.00;96986.66;4978525;28;20210;-68
2024/01/24 09:44:01;;;;;;;3.80;0.40;;;;;;;13.55;100.00;96985.16;4975808;28;20207;-68
2024/01/24 09:46:28;;;;;;;0.90;0.33;;;;;;;13.50;100.00;97002.59;4978905;28;20218;-68
2024/01/24 09:48:55;;;;;;;0.37;0.37;;;;;;;13.34;100.00;96997.41;4975428;28;20230;-68
2024/01/24 09:51:23;;;;;;;1.17;0.60;;;;;;;13.55;100.00;97001.03;4977265;28;20363;-68
2024/01/24 09:53:51;;;;;;;0.53;0.30;;;;;;;13.55;100.00;96987.81;4977185;28;20203;-68
2024/01/24 09:56:19;;;;;;;0.20;0.20;;;;;;;13.46;100.00;97001.28;4976420;28;20210;-68
2024/01/24 09:58:45;;;;;;;1.03;0.40;;;;;;;13.54;100.00;97004.72;4977389;28;20234;-69
2024/01/24 10:01:13;;;;;;;0.40;0.40;;;;;;;13.43;100.00;97002.47;4977719;28;20696;-69
2024/01/24 10:03:40;;;;;;;0.67;0.60;;;;;;;13.60;100.00;96969.56;4976627;28;20195;-68
2024/01/24 10:06:09;;;;;;;0.77;0.40;;;;;;;13.72;100.00;96973.47;4977540;28;20740;-69
2024/01/24 10:08:37;;;;;;;0.73;0.60;;;;;;;13.79;100.00;96978.88;4977121;28;20970;-69
2024/01/24 10:11:04;;;;;;;2.30;1.17;;;;;;;13.80;100.00;96977.88;4976094;28;20223;-68
2024/01/24 10:13:31;;;;;;;0.57;0.57;;;;;;;13.69;100.00;96965.03;4978294;28;20211;-69
2024/01/24 10:15:59;;;;;;;0.73;0.50;;;;;;;13.72;100.00;96968.16;4977638;28;20226;-68
2024/01/24 10:18:26;;;;;;;0.50;0.50;;;;;;;13.64;100.00;96986.75;4975679;28;20219;-68
2024/01/24 10:20:54;;;;;;;0.50;0.50;;;;;;;13.68;100.00;96973.97;4975927;28;20673;-69
2024/01/24 10:23:22;;;;;;;0.77;0.50;;;;;;;13.73;100.00;96969.78;4977810;28;20210;-68
2024/01/24 10:25:49;;;;;;;0.60;0.60;;;;;;;13.74;100.00;96966.13;4976034;28;20199;-68
2024/01/24 10:28:16;;;;;;;1.50;0.60;;;;;;;13.61;100.00;96978.34;4978201;28;20267;-67
2024/01/24 10:30:43;;;;;;;0.83;0.70;;;;;;;13.65;100.00;96967.22;4976227;28;20346;-68
2024/01/24 10:33:11;;;;;;;0.20;0.20;;;;;;;13.74;100.00;96975.91;4976034;28;21044;-68
2024/01/24 10:35:38;;;;;;;0.53;0.47;;;;;;;13.64;100.00;96985.94;4978204;28;20203;-68
2024/01/24 10:38:05;;;;;;;0.30;0.30;;;;;;;13.74;100.00;96984.69;4975175;28;20223;-68
2024/01/24 10:40:32;;;;;;;0.60;0.60;;;;;;;13.68;100.00;96980.13;4975064;28;20221;-68
2024/01/24 10:43:08;;;;;;;0.40;0.30;;;;;;;13.79;100.00;96974.38;4974682;28;20207;-68
2024/01/24 10:45:35;;;;;;;0.50;0.50;;;;;;;13.80;100.00;96961.97;4974611;28;20203;-68
2024/01/24 10:48:02;;;;;;;0.33;0.33;;;;;;;13.76;100.00;96965.94;4973841;28;20228;-68
2024/01/24 10:50:31;;;;;;;0.30;0.30;;;;;;;13.89;100.00;96959.06;4974272;28;20226;-69
2024/01/24 10:52:59;;;;;;;0.30;0.30;;;;;;;13.82;100.00;96974.00;4974765;28;20211;-68
2024/01/24 10:55:26;;;;;;;1.30;0.83;;;;;;;13.70;100.00;96975.44;4976129;28;20213;-68
2024/01/24 10:57:53;;;;;;;0.20;0.20;;;;;;;13.89;100.00;96987.41;4975515;28;20230;-68
2024/01/24 11:00:22;;;;;;;0.53;0.53;;;;;;;13.88;100.00;96965.34;4975394;28;20199;-68
2024/01/24 11:02:49;;;;;;;0.40;0.30;;;;;;;13.56;100.00;96993.94;4975961;28;20387;-68
2024/01/24 11:05:20;;;;;;;0.57;0.43;;;;;;;13.83;100.00;97004.00;4977324;28;20225;-68
2024/01/24 11:07:55;;;;;;;0.20;0.20;;;;;;;13.96;100.00;96967.09;4975195;28;20231;-68
2024/01/24 11:10:24;;;;;;;0.30;0.30;;;;;;;14.10;100.00;96975.94;4977598;28;20229;-68
2024/01/24 11:12:51;;;;;;;0.40;0.40;;;;;;;13.95;100.00;96974.25;4975479;28;21147;-68
2024/01/24 11:15:18;;;;;;;0.20;0.20;;;;;;;14.20;100.00;96963.22;4976801;28;20207;-68
2024/01/24 11:18:06;;;;;;;0.40;0.40;;;;;;;14.45;100.00;96951.38;4974504;28;20249;-68
2024/01/24 11:20:45;;;;;;;0.30;0.30;;;;;;;14.24;100.00;96969.00;4976273;28;20547;-68
2024/01/24 11:23:38;;;;;;;0.32;0.32;;;;;;;14.38;100.00;96966.34;4979480;28;20209;-68
2024/01/24 11:26:05;;;;;;;0.53;0.53;;;;;;;14.25;100.00;96975.97;4979458;28;20203;-68
2024/01/24 11:28:31;;;;;;;0.30;0.30;;;;;;;13.81;100.00;96964.44;4978377;28;20640;-68